<?xml version="1.0" encoding="utf-8"?>
<gpx xmlns:xsi="http://www.w3.org/2001/XMLSchema-instance" xmlns:xsd="http://www.w3.org/2001/XMLSchema" version="1.1" creator="Shapelink.com" xmlns="http://www.topografix.com/GPX/1/1" xmlns:gpxtpx="http://www.garmin.com/xmlschemas/TrackPointExtension/v1">
  <metadata>
    <name>Ejecutar 7.31 km, 2019-12-12</name>
    <desc></desc>
    <author><name>Per Rooth</name></author> 
    <time>2019-12-12T05:35:47Z</time>
  </metadata>
  <trk>
    <name>Ejecutar 7.31 km, 2019-12-12</name>
    <trkseg>
      <trkpt lat="56.87307826569" lon="14.792535789367">
        <ele>176.4</ele>
        <time>2019-12-12T05:35:47Z</time>
      </trkpt>
      <trkpt lat="56.873056724207" lon="14.792539477403">
        <ele>177.6</ele>
        <time>2019-12-12T05:35:48Z</time>
      </trkpt>
      <trkpt lat="56.873130652565" lon="14.792488096356">
        <ele>177</ele>
        <time>2019-12-12T05:35:49Z</time>
      </trkpt>
      <trkpt lat="56.873121683932" lon="14.792492538763">
        <ele>176.6</ele>
        <time>2019-12-12T05:35:50Z</time>
      </trkpt>
      <trkpt lat="56.872928062042" lon="14.792566718578">
        <ele>176.4</ele>
        <time>2019-12-12T05:35:59Z</time>
      </trkpt>
      <trkpt lat="56.872745168984" lon="14.792669899767">
        <ele>176.6</ele>
        <time>2019-12-12T05:36:07Z</time>
      </trkpt>
      <trkpt lat="56.872544422479" lon="14.792670989414">
        <ele>176.6</ele>
        <time>2019-12-12T05:36:15Z</time>
      </trkpt>
      <trkpt lat="56.872348034562" lon="14.792609717725">
        <ele>176.8</ele>
        <time>2019-12-12T05:36:24Z</time>
      </trkpt>
      <trkpt lat="56.872297743162" lon="14.792603012205">
        <ele>176.8</ele>
        <time>2019-12-12T05:36:26Z</time>
      </trkpt>
      <trkpt lat="56.87211099443" lon="14.792630756294">
        <ele>176.8</ele>
        <time>2019-12-12T05:36:34Z</time>
      </trkpt>
      <trkpt lat="56.871934890711" lon="14.792718430968">
        <ele>176.8</ele>
        <time>2019-12-12T05:36:41Z</time>
      </trkpt>
      <trkpt lat="56.871747974341" lon="14.792844746201">
        <ele>176.4</ele>
        <time>2019-12-12T05:36:48Z</time>
      </trkpt>
      <trkpt lat="56.871732467826" lon="14.792929235753">
        <ele>176.6</ele>
        <time>2019-12-12T05:36:49Z</time>
      </trkpt>
      <trkpt lat="56.871554771546" lon="14.793072566243">
        <ele>176.8</ele>
        <time>2019-12-12T05:36:56Z</time>
      </trkpt>
      <trkpt lat="56.871362239303" lon="14.793076924831">
        <ele>176.4</ele>
        <time>2019-12-12T05:37:03Z</time>
      </trkpt>
      <trkpt lat="56.871171048164" lon="14.793015150228">
        <ele>176.2</ele>
        <time>2019-12-12T05:37:10Z</time>
      </trkpt>
      <trkpt lat="56.871016821204" lon="14.792959913507">
        <ele>175.4</ele>
        <time>2019-12-12T05:37:16Z</time>
      </trkpt>
      <trkpt lat="56.870852200688" lon="14.792804261624">
        <ele>175.2</ele>
        <time>2019-12-12T05:37:22Z</time>
      </trkpt>
      <trkpt lat="56.870660338997" lon="14.792722957194">
        <ele>174.6</ele>
        <time>2019-12-12T05:37:30Z</time>
      </trkpt>
      <trkpt lat="56.870606527199" lon="14.792702505358">
        <ele>174.4</ele>
        <time>2019-12-12T05:37:32Z</time>
      </trkpt>
      <trkpt lat="56.870428244186" lon="14.792629666647">
        <ele>174</ele>
        <time>2019-12-12T05:37:39Z</time>
      </trkpt>
      <trkpt lat="56.870311149043" lon="14.792585745491">
        <ele>173.4</ele>
        <time>2019-12-12T05:37:44Z</time>
      </trkpt>
      <trkpt lat="56.870134207134" lon="14.79244920434">
        <ele>172.8</ele>
        <time>2019-12-12T05:37:51Z</time>
      </trkpt>
      <trkpt lat="56.870059272948" lon="14.792445516304">
        <ele>172.4</ele>
        <time>2019-12-12T05:37:54Z</time>
      </trkpt>
      <trkpt lat="56.870040916587" lon="14.792473847126">
        <ele>172.4</ele>
        <time>2019-12-12T05:37:55Z</time>
      </trkpt>
      <trkpt lat="56.869928850584" lon="14.792778780648">
        <ele>172.2</ele>
        <time>2019-12-12T05:38:03Z</time>
      </trkpt>
      <trkpt lat="56.869814437649" lon="14.793053874606">
        <ele>172.4</ele>
        <time>2019-12-12T05:38:10Z</time>
      </trkpt>
      <trkpt lat="56.869730031916" lon="14.793356796472">
        <ele>171.6</ele>
        <time>2019-12-12T05:38:17Z</time>
      </trkpt>
      <trkpt lat="56.869693403013" lon="14.793486129189">
        <ele>171.8</ele>
        <time>2019-12-12T05:38:20Z</time>
      </trkpt>
      <trkpt lat="56.869560633717" lon="14.793757535111">
        <ele>171.2</ele>
        <time>2019-12-12T05:38:27Z</time>
      </trkpt>
      <trkpt lat="56.869373968804" lon="14.793597608459">
        <ele>170.6</ele>
        <time>2019-12-12T05:38:34Z</time>
      </trkpt>
      <trkpt lat="56.8693223363" lon="14.793532732553">
        <ele>170</ele>
        <time>2019-12-12T05:38:36Z</time>
      </trkpt>
      <trkpt lat="56.869150088255" lon="14.793336344636">
        <ele>169.6</ele>
        <time>2019-12-12T05:38:43Z</time>
      </trkpt>
      <trkpt lat="56.869107843479" lon="14.793337434283">
        <ele>169.2</ele>
        <time>2019-12-12T05:38:45Z</time>
      </trkpt>
      <trkpt lat="56.869093091335" lon="14.793369285503">
        <ele>169</ele>
        <time>2019-12-12T05:38:46Z</time>
      </trkpt>
      <trkpt lat="56.86908261396" lon="14.793407758424">
        <ele>168.8</ele>
        <time>2019-12-12T05:38:47Z</time>
      </trkpt>
      <trkpt lat="56.869024862669" lon="14.793754517627">
        <ele>168.8</ele>
        <time>2019-12-12T05:38:54Z</time>
      </trkpt>
      <trkpt lat="56.868966440826" lon="14.79410295321">
        <ele>169.2</ele>
        <time>2019-12-12T05:39:01Z</time>
      </trkpt>
      <trkpt lat="56.868896284323" lon="14.794447533119">
        <ele>168.8</ele>
        <time>2019-12-12T05:39:08Z</time>
      </trkpt>
      <trkpt lat="56.86882026049" lon="14.794779875454">
        <ele>168.6</ele>
        <time>2019-12-12T05:39:15Z</time>
      </trkpt>
      <trkpt lat="56.868739375155" lon="14.795109954676">
        <ele>168.8</ele>
        <time>2019-12-12T05:39:22Z</time>
      </trkpt>
      <trkpt lat="56.86866687172" lon="14.795440369174">
        <ele>168.6</ele>
        <time>2019-12-12T05:39:29Z</time>
      </trkpt>
      <trkpt lat="56.868590177335" lon="14.795770532215">
        <ele>168.4</ele>
        <time>2019-12-12T05:39:36Z</time>
      </trkpt>
      <trkpt lat="56.868514656416" lon="14.796088709139">
        <ele>168.8</ele>
        <time>2019-12-12T05:39:43Z</time>
      </trkpt>
      <trkpt lat="56.868446846845" lon="14.796416609067">
        <ele>168.4</ele>
        <time>2019-12-12T05:39:50Z</time>
      </trkpt>
      <trkpt lat="56.868380462197" lon="14.796735708">
        <ele>169</ele>
        <time>2019-12-12T05:39:57Z</time>
      </trkpt>
      <trkpt lat="56.868307204391" lon="14.797052376182">
        <ele>168.8</ele>
        <time>2019-12-12T05:40:04Z</time>
      </trkpt>
      <trkpt lat="56.86823604206" lon="14.797403493973">
        <ele>168.8</ele>
        <time>2019-12-12T05:40:11Z</time>
      </trkpt>
      <trkpt lat="56.868213327111" lon="14.797506423705">
        <ele>168.8</ele>
        <time>2019-12-12T05:40:13Z</time>
      </trkpt>
      <trkpt lat="56.868147948291" lon="14.797853769641">
        <ele>169</ele>
        <time>2019-12-12T05:40:21Z</time>
      </trkpt>
      <trkpt lat="56.868118946917" lon="14.798212682599">
        <ele>168.6</ele>
        <time>2019-12-12T05:40:29Z</time>
      </trkpt>
      <trkpt lat="56.868101680203" lon="14.798564806218">
        <ele>168.6</ele>
        <time>2019-12-12T05:40:37Z</time>
      </trkpt>
      <trkpt lat="56.868057675228" lon="14.79889740001">
        <ele>168.4</ele>
        <time>2019-12-12T05:40:44Z</time>
      </trkpt>
      <trkpt lat="56.868048036043" lon="14.798999575371">
        <ele>168.6</ele>
        <time>2019-12-12T05:40:46Z</time>
      </trkpt>
      <trkpt lat="56.868044012731" lon="14.799343903823">
        <ele>168</ele>
        <time>2019-12-12T05:40:53Z</time>
      </trkpt>
      <trkpt lat="56.868096399606" lon="14.799683957506">
        <ele>168.2</ele>
        <time>2019-12-12T05:41:00Z</time>
      </trkpt>
      <trkpt lat="56.86818994161" lon="14.799998111118">
        <ele>168.2</ele>
        <time>2019-12-12T05:41:07Z</time>
      </trkpt>
      <trkpt lat="56.868221122278" lon="14.800092491312">
        <ele>167.8</ele>
        <time>2019-12-12T05:41:09Z</time>
      </trkpt>
      <trkpt lat="56.868326482761" lon="14.8003985983">
        <ele>168</ele>
        <time>2019-12-12T05:41:16Z</time>
      </trkpt>
      <trkpt lat="56.868417845471" lon="14.800738316707">
        <ele>167.8</ele>
        <time>2019-12-12T05:41:23Z</time>
      </trkpt>
      <trkpt lat="56.868455983116" lon="14.800873935849">
        <ele>167.6</ele>
        <time>2019-12-12T05:41:26Z</time>
      </trkpt>
      <trkpt lat="56.868561343599" lon="14.80116218939">
        <ele>168.2</ele>
        <time>2019-12-12T05:41:33Z</time>
      </trkpt>
      <trkpt lat="56.868665027702" lon="14.801453544234">
        <ele>168.2</ele>
        <time>2019-12-12T05:41:40Z</time>
      </trkpt>
      <trkpt lat="56.868766029597" lon="14.801730985124">
        <ele>168</ele>
        <time>2019-12-12T05:41:47Z</time>
      </trkpt>
      <trkpt lat="56.868867702044" lon="14.802056119025">
        <ele>168</ele>
        <time>2019-12-12T05:41:55Z</time>
      </trkpt>
      <trkpt lat="56.868981863522" lon="14.802351161905">
        <ele>168</ele>
        <time>2019-12-12T05:42:02Z</time>
      </trkpt>
      <trkpt lat="56.869095270629" lon="14.802640169817">
        <ele>168</ele>
        <time>2019-12-12T05:42:09Z</time>
      </trkpt>
      <trkpt lat="56.869227788468" lon="14.802875785026">
        <ele>167.8</ele>
        <time>2019-12-12T05:42:16Z</time>
      </trkpt>
      <trkpt lat="56.869384446179" lon="14.803020708077">
        <ele>168</ele>
        <time>2019-12-12T05:42:22Z</time>
      </trkpt>
      <trkpt lat="56.869410765345" lon="14.803111064959">
        <ele>167.8</ele>
        <time>2019-12-12T05:42:24Z</time>
      </trkpt>
      <trkpt lat="56.869488549377" lon="14.80342278782">
        <ele>167.4</ele>
        <time>2019-12-12T05:42:31Z</time>
      </trkpt>
      <trkpt lat="56.869549150514" lon="14.803772648326">
        <ele>167.2</ele>
        <time>2019-12-12T05:42:38Z</time>
      </trkpt>
      <trkpt lat="56.869528698678" lon="14.804138685899">
        <ele>167.2</ele>
        <time>2019-12-12T05:42:45Z</time>
      </trkpt>
      <trkpt lat="56.869486370083" lon="14.804499442875">
        <ele>167</ele>
        <time>2019-12-12T05:42:52Z</time>
      </trkpt>
      <trkpt lat="56.869479748382" lon="14.804726089451">
        <ele>166.8</ele>
        <time>2019-12-12T05:42:56Z</time>
      </trkpt>
      <trkpt lat="56.869453177759" lon="14.805054576112">
        <ele>167.2</ele>
        <time>2019-12-12T05:43:02Z</time>
      </trkpt>
      <trkpt lat="56.869492153594" lon="14.805396138537">
        <ele>167.2</ele>
        <time>2019-12-12T05:43:09Z</time>
      </trkpt>
      <trkpt lat="56.869542696451" lon="14.805740718446">
        <ele>167.4</ele>
        <time>2019-12-12T05:43:17Z</time>
      </trkpt>
      <trkpt lat="56.869608075271" lon="14.806092339151">
        <ele>168</ele>
        <time>2019-12-12T05:43:24Z</time>
      </trkpt>
      <trkpt lat="56.869705137673" lon="14.806373551896">
        <ele>167.8</ele>
        <time>2019-12-12T05:43:30Z</time>
      </trkpt>
      <trkpt lat="56.869849725448" lon="14.806634564262">
        <ele>167.6</ele>
        <time>2019-12-12T05:43:37Z</time>
      </trkpt>
      <trkpt lat="56.869991295739" lon="14.806864144503">
        <ele>167.8</ele>
        <time>2019-12-12T05:43:44Z</time>
      </trkpt>
      <trkpt lat="56.870127250157" lon="14.807141333936">
        <ele>167.2</ele>
        <time>2019-12-12T05:43:51Z</time>
      </trkpt>
      <trkpt lat="56.870283824049" lon="14.807380301905">
        <ele>167</ele>
        <time>2019-12-12T05:43:58Z</time>
      </trkpt>
      <trkpt lat="56.870438134828" lon="14.807521956015">
        <ele>167.2</ele>
        <time>2019-12-12T05:44:04Z</time>
      </trkpt>
      <trkpt lat="56.870637707867" lon="14.807598734219">
        <ele>167.2</ele>
        <time>2019-12-12T05:44:11Z</time>
      </trkpt>
      <trkpt lat="56.87081766726" lon="14.807678949002">
        <ele>167.2</ele>
        <time>2019-12-12T05:44:17Z</time>
      </trkpt>
      <trkpt lat="56.870997459015" lon="14.807746674754">
        <ele>167.4</ele>
        <time>2019-12-12T05:44:23Z</time>
      </trkpt>
      <trkpt lat="56.871189907439" lon="14.807833092143">
        <ele>167.6</ele>
        <time>2019-12-12T05:44:30Z</time>
      </trkpt>
      <trkpt lat="56.871363496588" lon="14.808022439264">
        <ele>167.6</ele>
        <time>2019-12-12T05:44:37Z</time>
      </trkpt>
      <trkpt lat="56.87150246849" lon="14.808241709768">
        <ele>167.6</ele>
        <time>2019-12-12T05:44:43Z</time>
      </trkpt>
      <trkpt lat="56.871648900283" lon="14.808439690246">
        <ele>167.2</ele>
        <time>2019-12-12T05:44:49Z</time>
      </trkpt>
      <trkpt lat="56.871799774483" lon="14.808641861674">
        <ele>167.4</ele>
        <time>2019-12-12T05:44:56Z</time>
      </trkpt>
      <trkpt lat="56.871980320609" lon="14.808784186336">
        <ele>167.4</ele>
        <time>2019-12-12T05:45:03Z</time>
      </trkpt>
      <trkpt lat="56.872180648019" lon="14.808830873519">
        <ele>167.6</ele>
        <time>2019-12-12T05:45:10Z</time>
      </trkpt>
      <trkpt lat="56.872362870525" lon="14.80886934644">
        <ele>167.8</ele>
        <time>2019-12-12T05:45:16Z</time>
      </trkpt>
      <trkpt lat="56.872516762209" lon="14.808905137153">
        <ele>168</ele>
        <time>2019-12-12T05:45:21Z</time>
      </trkpt>
      <trkpt lat="56.872709881185" lon="14.808949142128">
        <ele>167.4</ele>
        <time>2019-12-12T05:45:28Z</time>
      </trkpt>
      <trkpt lat="56.872891852234" lon="14.808948639214">
        <ele>167.2</ele>
        <time>2019-12-12T05:45:35Z</time>
      </trkpt>
      <trkpt lat="56.873078098052" lon="14.809046623625">
        <ele>167.8</ele>
        <time>2019-12-12T05:45:43Z</time>
      </trkpt>
      <trkpt lat="56.873261577843" lon="14.809081576148">
        <ele>168.4</ele>
        <time>2019-12-12T05:45:50Z</time>
      </trkpt>
      <trkpt lat="56.873458971588" lon="14.809141674371">
        <ele>168.6</ele>
        <time>2019-12-12T05:45:58Z</time>
      </trkpt>
      <trkpt lat="56.873653012573" lon="14.809189618839">
        <ele>168.6</ele>
        <time>2019-12-12T05:46:05Z</time>
      </trkpt>
      <trkpt lat="56.873844622807" lon="14.809229265226">
        <ele>168.8</ele>
        <time>2019-12-12T05:46:11Z</time>
      </trkpt>
      <trkpt lat="56.874024498381" lon="14.809274024572">
        <ele>169</ele>
        <time>2019-12-12T05:46:17Z</time>
      </trkpt>
      <trkpt lat="56.874207475258" lon="14.809308390362">
        <ele>169.2</ele>
        <time>2019-12-12T05:46:23Z</time>
      </trkpt>
      <trkpt lat="56.874385590633" lon="14.809360022866">
        <ele>169.2</ele>
        <time>2019-12-12T05:46:29Z</time>
      </trkpt>
      <trkpt lat="56.874571249718" lon="14.80941416994">
        <ele>169.4</ele>
        <time>2019-12-12T05:46:36Z</time>
      </trkpt>
      <trkpt lat="56.87476721854" lon="14.809498910949">
        <ele>169.2</ele>
        <time>2019-12-12T05:46:43Z</time>
      </trkpt>
      <trkpt lat="56.874961594801" lon="14.809578036085">
        <ele>169.6</ele>
        <time>2019-12-12T05:46:49Z</time>
      </trkpt>
      <trkpt lat="56.875146164239" lon="14.809676607229">
        <ele>169.8</ele>
        <time>2019-12-12T05:46:55Z</time>
      </trkpt>
      <trkpt lat="56.875333164428" lon="14.809813316018">
        <ele>169.4</ele>
        <time>2019-12-12T05:47:02Z</time>
      </trkpt>
      <trkpt lat="56.875532066915" lon="14.809941810545">
        <ele>168.2</ele>
        <time>2019-12-12T05:47:09Z</time>
      </trkpt>
      <trkpt lat="56.875623429625" lon="14.809992353402">
        <ele>168</ele>
        <time>2019-12-12T05:47:12Z</time>
      </trkpt>
      <trkpt lat="56.87571269686" lon="14.810074831298">
        <ele>167.8</ele>
        <time>2019-12-12T05:47:16Z</time>
      </trkpt>
      <trkpt lat="56.875694089042" lon="14.810423602157">
        <ele>167.6</ele>
        <time>2019-12-12T05:47:23Z</time>
      </trkpt>
      <trkpt lat="56.875681348554" lon="14.810767260057">
        <ele>167.8</ele>
        <time>2019-12-12T05:47:29Z</time>
      </trkpt>
      <trkpt lat="56.875666428772" lon="14.811149893792">
        <ele>167.8</ele>
        <time>2019-12-12T05:47:36Z</time>
      </trkpt>
      <trkpt lat="56.875671374093" lon="14.811522301609">
        <ele>167.8</ele>
        <time>2019-12-12T05:47:43Z</time>
      </trkpt>
      <trkpt lat="56.875669781532" lon="14.811896804901">
        <ele>167.6</ele>
        <time>2019-12-12T05:47:50Z</time>
      </trkpt>
      <trkpt lat="56.875676151776" lon="14.812274409496">
        <ele>167.6</ele>
        <time>2019-12-12T05:47:57Z</time>
      </trkpt>
      <trkpt lat="56.875650838438" lon="14.812640447069">
        <ele>167.6</ele>
        <time>2019-12-12T05:48:04Z</time>
      </trkpt>
      <trkpt lat="56.875595014984" lon="14.812995588172">
        <ele>167.6</ele>
        <time>2019-12-12T05:48:11Z</time>
      </trkpt>
      <trkpt lat="56.875528211241" lon="14.813332456733">
        <ele>167.4</ele>
        <time>2019-12-12T05:48:18Z</time>
      </trkpt>
      <trkpt lat="56.875459228204" lon="14.813650633657">
        <ele>167.8</ele>
        <time>2019-12-12T05:48:25Z</time>
      </trkpt>
      <trkpt lat="56.8753740681" lon="14.813947185279">
        <ele>167.8</ele>
        <time>2019-12-12T05:48:31Z</time>
      </trkpt>
      <trkpt lat="56.875274072033" lon="14.814231080232">
        <ele>167.4</ele>
        <time>2019-12-12T05:48:37Z</time>
      </trkpt>
      <trkpt lat="56.875160245831" lon="14.814487566372">
        <ele>167.4</ele>
        <time>2019-12-12T05:48:43Z</time>
      </trkpt>
      <trkpt lat="56.875033930598" lon="14.814775903732">
        <ele>167.6</ele>
        <time>2019-12-12T05:48:50Z</time>
      </trkpt>
      <trkpt lat="56.874866376417" lon="14.814935411289">
        <ele>168</ele>
        <time>2019-12-12T05:48:56Z</time>
      </trkpt>
      <trkpt lat="56.8746867523" lon="14.815044878903">
        <ele>168.2</ele>
        <time>2019-12-12T05:49:02Z</time>
      </trkpt>
      <trkpt lat="56.874508888382" lon="14.815158118372">
        <ele>167.8</ele>
        <time>2019-12-12T05:49:08Z</time>
      </trkpt>
      <trkpt lat="56.874325995324" lon="14.815314440807">
        <ele>168</ele>
        <time>2019-12-12T05:49:15Z</time>
      </trkpt>
      <trkpt lat="56.874163637921" lon="14.815512086009">
        <ele>168</ele>
        <time>2019-12-12T05:49:22Z</time>
      </trkpt>
      <trkpt lat="56.873981331596" lon="14.815570759309">
        <ele>168</ele>
        <time>2019-12-12T05:49:30Z</time>
      </trkpt>
      <trkpt lat="56.873918718803" lon="14.815548463455">
        <ele>167.8</ele>
        <time>2019-12-12T05:49:33Z</time>
      </trkpt>
      <trkpt lat="56.873717301746" lon="14.815489287241">
        <ele>167.4</ele>
        <time>2019-12-12T05:49:40Z</time>
      </trkpt>
      <trkpt lat="56.873510939368" lon="14.815469086862">
        <ele>167.2</ele>
        <time>2019-12-12T05:49:47Z</time>
      </trkpt>
      <trkpt lat="56.873327794853" lon="14.815440336945">
        <ele>167.4</ele>
        <time>2019-12-12T05:49:54Z</time>
      </trkpt>
      <trkpt lat="56.873130149651" lon="14.815356015031">
        <ele>167.6</ele>
        <time>2019-12-12T05:50:00Z</time>
      </trkpt>
      <trkpt lat="56.872957314873" lon="14.815253588213">
        <ele>167.6</ele>
        <time>2019-12-12T05:50:05Z</time>
      </trkpt>
      <trkpt lat="56.872802165904" lon="14.815034904442">
        <ele>167.4</ele>
        <time>2019-12-12T05:50:11Z</time>
      </trkpt>
      <trkpt lat="56.872635533732" lon="14.814900207309">
        <ele>167.6</ele>
        <time>2019-12-12T05:50:17Z</time>
      </trkpt>
      <trkpt lat="56.872459262375" lon="14.814961646636">
        <ele>167.6</ele>
        <time>2019-12-12T05:50:23Z</time>
      </trkpt>
      <trkpt lat="56.872267819779" lon="14.815038843935">
        <ele>167.4</ele>
        <time>2019-12-12T05:50:30Z</time>
      </trkpt>
      <trkpt lat="56.872063049962" lon="14.815119310175">
        <ele>167.8</ele>
        <time>2019-12-12T05:50:37Z</time>
      </trkpt>
      <trkpt lat="56.87188384494" lon="14.815184772814">
        <ele>168</ele>
        <time>2019-12-12T05:50:43Z</time>
      </trkpt>
      <trkpt lat="56.871694833095" lon="14.815231795273">
        <ele>168.4</ele>
        <time>2019-12-12T05:50:51Z</time>
      </trkpt>
      <trkpt lat="56.871526021629" lon="14.815111766465">
        <ele>168.6</ele>
        <time>2019-12-12T05:50:57Z</time>
      </trkpt>
      <trkpt lat="56.871363245131" lon="14.814967513966">
        <ele>168.8</ele>
        <time>2019-12-12T05:51:03Z</time>
      </trkpt>
      <trkpt lat="56.871192254371" lon="14.814813622282">
        <ele>168.6</ele>
        <time>2019-12-12T05:51:09Z</time>
      </trkpt>
      <trkpt lat="56.871007684933" lon="14.814682361728">
        <ele>168.8</ele>
        <time>2019-12-12T05:51:15Z</time>
      </trkpt>
      <trkpt lat="56.87081515269" lon="14.814543222188">
        <ele>168.8</ele>
        <time>2019-12-12T05:51:22Z</time>
      </trkpt>
      <trkpt lat="56.87073217188" lon="14.814500139222">
        <ele>169</ele>
        <time>2019-12-12T05:51:25Z</time>
      </trkpt>
      <trkpt lat="56.870548272994" lon="14.814422774285">
        <ele>169</ele>
        <time>2019-12-12T05:51:32Z</time>
      </trkpt>
      <trkpt lat="56.870366637221" lon="14.814446914157">
        <ele>168.6</ele>
        <time>2019-12-12T05:51:38Z</time>
      </trkpt>
      <trkpt lat="56.870179134118" lon="14.814561830006">
        <ele>168.6</ele>
        <time>2019-12-12T05:51:44Z</time>
      </trkpt>
      <trkpt lat="56.869990876644" lon="14.814701556279">
        <ele>168</ele>
        <time>2019-12-12T05:51:51Z</time>
      </trkpt>
      <trkpt lat="56.869816197848" lon="14.814892915056">
        <ele>168.4</ele>
        <time>2019-12-12T05:51:58Z</time>
      </trkpt>
      <trkpt lat="56.869646464373" lon="14.815061139789">
        <ele>168.4</ele>
        <time>2019-12-12T05:52:04Z</time>
      </trkpt>
      <trkpt lat="56.869475305975" lon="14.815210756704">
        <ele>168.6</ele>
        <time>2019-12-12T05:52:10Z</time>
      </trkpt>
      <trkpt lat="56.869277996049" lon="14.81533682048">
        <ele>168.6</ele>
        <time>2019-12-12T05:52:17Z</time>
      </trkpt>
      <trkpt lat="56.869094013344" lon="14.815463973903">
        <ele>168.4</ele>
        <time>2019-12-12T05:52:23Z</time>
      </trkpt>
      <trkpt lat="56.868910198277" lon="14.815523904488">
        <ele>168.4</ele>
        <time>2019-12-12T05:52:29Z</time>
      </trkpt>
      <trkpt lat="56.868725125925" lon="14.815455256727">
        <ele>168.8</ele>
        <time>2019-12-12T05:52:35Z</time>
      </trkpt>
      <trkpt lat="56.86852354123" lon="14.815399433273">
        <ele>168</ele>
        <time>2019-12-12T05:52:41Z</time>
      </trkpt>
      <trkpt lat="56.868339726163" lon="14.815363055827">
        <ele>167.6</ele>
        <time>2019-12-12T05:52:47Z</time>
      </trkpt>
      <trkpt lat="56.868164712091" lon="14.815281248483">
        <ele>167.2</ele>
        <time>2019-12-12T05:52:53Z</time>
      </trkpt>
      <trkpt lat="56.867989278924" lon="14.815175301267">
        <ele>167.6</ele>
        <time>2019-12-12T05:52:59Z</time>
      </trkpt>
      <trkpt lat="56.867809487169" lon="14.815090644077">
        <ele>167.6</ele>
        <time>2019-12-12T05:53:06Z</time>
      </trkpt>
      <trkpt lat="56.867617038745" lon="14.815105815316">
        <ele>167.4</ele>
        <time>2019-12-12T05:53:12Z</time>
      </trkpt>
      <trkpt lat="56.867425847606" lon="14.815135990156">
        <ele>167.6</ele>
        <time>2019-12-12T05:53:18Z</time>
      </trkpt>
      <trkpt lat="56.867239015055" lon="14.815196675112">
        <ele>167.6</ele>
        <time>2019-12-12T05:53:24Z</time>
      </trkpt>
      <trkpt lat="56.867036759808" lon="14.815290300935">
        <ele>168</ele>
        <time>2019-12-12T05:53:31Z</time>
      </trkpt>
      <trkpt lat="56.866858225338" lon="14.815390380821">
        <ele>167.8</ele>
        <time>2019-12-12T05:53:37Z</time>
      </trkpt>
      <trkpt lat="56.866672650072" lon="14.815479815694">
        <ele>167.6</ele>
        <time>2019-12-12T05:53:43Z</time>
      </trkpt>
      <trkpt lat="56.866473999042" lon="14.81556396997">
        <ele>167.8</ele>
        <time>2019-12-12T05:53:50Z</time>
      </trkpt>
      <trkpt lat="56.866278784591" lon="14.815691123393">
        <ele>168.2</ele>
        <time>2019-12-12T05:53:57Z</time>
      </trkpt>
      <trkpt lat="56.86611123041" lon="14.815817606264">
        <ele>168.2</ele>
        <time>2019-12-12T05:54:03Z</time>
      </trkpt>
      <trkpt lat="56.865920290728" lon="14.81595791927">
        <ele>168</ele>
        <time>2019-12-12T05:54:10Z</time>
      </trkpt>
      <trkpt lat="56.8657265012" lon="14.81607610406">
        <ele>167.8</ele>
        <time>2019-12-12T05:54:17Z</time>
      </trkpt>
      <trkpt lat="56.865549726929" lon="14.816208035166">
        <ele>167.8</ele>
        <time>2019-12-12T05:54:24Z</time>
      </trkpt>
      <trkpt lat="56.865386782793" lon="14.81634851581">
        <ele>168.4</ele>
        <time>2019-12-12T05:54:30Z</time>
      </trkpt>
      <trkpt lat="56.865216378766" lon="14.816496540164">
        <ele>168.4</ele>
        <time>2019-12-12T05:54:36Z</time>
      </trkpt>
      <trkpt lat="56.86505092006" lon="14.816692257529">
        <ele>168.8</ele>
        <time>2019-12-12T05:54:42Z</time>
      </trkpt>
      <trkpt lat="56.864880599852" lon="14.816883197211">
        <ele>168.8</ele>
        <time>2019-12-12T05:54:48Z</time>
      </trkpt>
      <trkpt lat="56.864694773129" lon="14.817048236822">
        <ele>168.8</ele>
        <time>2019-12-12T05:54:54Z</time>
      </trkpt>
      <trkpt lat="56.864516657754" lon="14.81720095504">
        <ele>168.6</ele>
        <time>2019-12-12T05:55:00Z</time>
      </trkpt>
      <trkpt lat="56.864352791609" lon="14.817365324099">
        <ele>167.8</ele>
        <time>2019-12-12T05:55:06Z</time>
      </trkpt>
      <trkpt lat="56.864197223545" lon="14.817531034262">
        <ele>167.8</ele>
        <time>2019-12-12T05:55:12Z</time>
      </trkpt>
      <trkpt lat="56.864020449274" lon="14.817703282307">
        <ele>168</ele>
        <time>2019-12-12T05:55:19Z</time>
      </trkpt>
      <trkpt lat="56.863859516794" lon="14.817866561719">
        <ele>168.2</ele>
        <time>2019-12-12T05:55:25Z</time>
      </trkpt>
      <trkpt lat="56.863678383935" lon="14.818005701259">
        <ele>167.4</ele>
        <time>2019-12-12T05:55:32Z</time>
      </trkpt>
      <trkpt lat="56.86349104847" lon="14.818163448617">
        <ele>167.4</ele>
        <time>2019-12-12T05:55:40Z</time>
      </trkpt>
      <trkpt lat="56.863309412697" lon="14.818280208484">
        <ele>167.2</ele>
        <time>2019-12-12T05:55:47Z</time>
      </trkpt>
      <trkpt lat="56.863111683676" lon="14.818369056624">
        <ele>167.6</ele>
        <time>2019-12-12T05:55:54Z</time>
      </trkpt>
      <trkpt lat="56.862929209713" lon="14.818346006399">
        <ele>167.8</ele>
        <time>2019-12-12T05:56:01Z</time>
      </trkpt>
      <trkpt lat="56.862722512059" lon="14.818311975885">
        <ele>168</ele>
        <time>2019-12-12T05:56:08Z</time>
      </trkpt>
      <trkpt lat="56.862528219617" lon="14.818224636487">
        <ele>167.6</ele>
        <time>2019-12-12T05:56:15Z</time>
      </trkpt>
      <trkpt lat="56.862335603555" lon="14.818160514952">
        <ele>167.6</ele>
        <time>2019-12-12T05:56:22Z</time>
      </trkpt>
      <trkpt lat="56.862155979438" lon="14.818126232981">
        <ele>167.4</ele>
        <time>2019-12-12T05:56:28Z</time>
      </trkpt>
      <trkpt lat="56.862000076098" lon="14.817926157028">
        <ele>168.2</ele>
        <time>2019-12-12T05:56:34Z</time>
      </trkpt>
      <trkpt lat="56.861928243215" lon="14.817614098891">
        <ele>168.4</ele>
        <time>2019-12-12T05:56:39Z</time>
      </trkpt>
      <trkpt lat="56.861859679273" lon="14.817283349117">
        <ele>168.4</ele>
        <time>2019-12-12T05:56:45Z</time>
      </trkpt>
      <trkpt lat="56.861808130588" lon="14.816940948502">
        <ele>168.2</ele>
        <time>2019-12-12T05:56:51Z</time>
      </trkpt>
      <trkpt lat="56.861846687328" lon="14.816624112682">
        <ele>168.6</ele>
        <time>2019-12-12T05:56:57Z</time>
      </trkpt>
      <trkpt lat="56.861969146887" lon="14.816364776696">
        <ele>168.8</ele>
        <time>2019-12-12T05:57:03Z</time>
      </trkpt>
      <trkpt lat="56.862096132672" lon="14.816109799298">
        <ele>168.8</ele>
        <time>2019-12-12T05:57:09Z</time>
      </trkpt>
      <trkpt lat="56.86210803497" lon="14.816048527609">
        <ele>169</ele>
        <time>2019-12-12T05:57:10Z</time>
      </trkpt>
      <trkpt lat="56.862285228336" lon="14.815893546278">
        <ele>169</ele>
        <time>2019-12-12T05:57:17Z</time>
      </trkpt>
      <trkpt lat="56.862424284057" lon="14.815687351538">
        <ele>169.2</ele>
        <time>2019-12-12T05:57:23Z</time>
      </trkpt>
      <trkpt lat="56.862590413315" lon="14.815498926426">
        <ele>169</ele>
        <time>2019-12-12T05:57:30Z</time>
      </trkpt>
      <trkpt lat="56.862737767117" lon="14.815222239907">
        <ele>169.2</ele>
        <time>2019-12-12T05:57:37Z</time>
      </trkpt>
      <trkpt lat="56.8628515095" lon="14.814920407688">
        <ele>169</ele>
        <time>2019-12-12T05:57:43Z</time>
      </trkpt>
      <trkpt lat="56.862967682634" lon="14.814640619866">
        <ele>169</ele>
        <time>2019-12-12T05:57:50Z</time>
      </trkpt>
      <trkpt lat="56.863010430324" lon="14.81431925782">
        <ele>169</ele>
        <time>2019-12-12T05:57:56Z</time>
      </trkpt>
      <trkpt lat="56.862927700971" lon="14.813982724535">
        <ele>169</ele>
        <time>2019-12-12T05:58:02Z</time>
      </trkpt>
      <trkpt lat="56.862810941104" lon="14.81370318817">
        <ele>168.8</ele>
        <time>2019-12-12T05:58:09Z</time>
      </trkpt>
      <trkpt lat="56.862642213457" lon="14.813521887673">
        <ele>168.6</ele>
        <time>2019-12-12T05:58:16Z</time>
      </trkpt>
      <trkpt lat="56.862440880219" lon="14.813494395041">
        <ele>168.8</ele>
        <time>2019-12-12T05:58:23Z</time>
      </trkpt>
      <trkpt lat="56.86225136546" lon="14.813450641523">
        <ele>169.4</ele>
        <time>2019-12-12T05:58:30Z</time>
      </trkpt>
      <trkpt lat="56.862073752999" lon="14.813312088716">
        <ele>169.6</ele>
        <time>2019-12-12T05:58:37Z</time>
      </trkpt>
      <trkpt lat="56.861914077804" lon="14.813074713308">
        <ele>169.4</ele>
        <time>2019-12-12T05:58:44Z</time>
      </trkpt>
      <trkpt lat="56.861732358212" lon="14.812909170783">
        <ele>169.2</ele>
        <time>2019-12-12T05:58:51Z</time>
      </trkpt>
      <trkpt lat="56.861558098511" lon="14.812723260241">
        <ele>169.2</ele>
        <time>2019-12-12T05:58:58Z</time>
      </trkpt>
      <trkpt lat="56.861396579298" lon="14.812468953395">
        <ele>169</ele>
        <time>2019-12-12T05:59:04Z</time>
      </trkpt>
      <trkpt lat="56.861286524951" lon="14.812160834751">
        <ele>168.6</ele>
        <time>2019-12-12T05:59:10Z</time>
      </trkpt>
      <trkpt lat="56.861209411471" lon="14.811854560125">
        <ele>168.2</ele>
        <time>2019-12-12T05:59:16Z</time>
      </trkpt>
      <trkpt lat="56.861144787022" lon="14.811542921083">
        <ele>168.6</ele>
        <time>2019-12-12T05:59:23Z</time>
      </trkpt>
      <trkpt lat="56.861124083729" lon="14.81119113274">
        <ele>168.4</ele>
        <time>2019-12-12T05:59:29Z</time>
      </trkpt>
      <trkpt lat="56.861153923293" lon="14.810862646079">
        <ele>168</ele>
        <time>2019-12-12T05:59:35Z</time>
      </trkpt>
      <trkpt lat="56.861152582189" lon="14.810518569084">
        <ele>168.2</ele>
        <time>2019-12-12T05:59:42Z</time>
      </trkpt>
      <trkpt lat="56.861177560251" lon="14.810165858732">
        <ele>168</ele>
        <time>2019-12-12T05:59:48Z</time>
      </trkpt>
      <trkpt lat="56.861182337934" lon="14.810096875695">
        <ele>168</ele>
        <time>2019-12-12T05:59:49Z</time>
      </trkpt>
      <trkpt lat="56.861251320971" lon="14.8097695625">
        <ele>167.8</ele>
        <time>2019-12-12T05:59:55Z</time>
      </trkpt>
      <trkpt lat="56.861314520497" lon="14.809428922084">
        <ele>168</ele>
        <time>2019-12-12T06:00:01Z</time>
      </trkpt>
      <trkpt lat="56.861399596782" lon="14.809088700763">
        <ele>167.8</ele>
        <time>2019-12-12T06:00:08Z</time>
      </trkpt>
      <trkpt lat="56.861479224832" lon="14.808702714268">
        <ele>168.4</ele>
        <time>2019-12-12T06:00:15Z</time>
      </trkpt>
      <trkpt lat="56.861490037483" lon="14.808641442579">
        <ele>168.4</ele>
        <time>2019-12-12T06:00:16Z</time>
      </trkpt>
      <trkpt lat="56.861571761008" lon="14.8083446395">
        <ele>168.8</ele>
        <time>2019-12-12T06:00:22Z</time>
      </trkpt>
      <trkpt lat="56.861587351342" lon="14.80830105362">
        <ele>169</ele>
        <time>2019-12-12T06:00:23Z</time>
      </trkpt>
      <trkpt lat="56.861722551389" lon="14.808015901382">
        <ele>169.4</ele>
        <time>2019-12-12T06:00:30Z</time>
      </trkpt>
      <trkpt lat="56.861835204125" lon="14.807746674754">
        <ele>169.2</ele>
        <time>2019-12-12T06:00:36Z</time>
      </trkpt>
      <trkpt lat="56.861964872118" lon="14.807440735404">
        <ele>169.4</ele>
        <time>2019-12-12T06:00:43Z</time>
      </trkpt>
      <trkpt lat="56.862101245631" lon="14.80720721567">
        <ele>169.4</ele>
        <time>2019-12-12T06:00:49Z</time>
      </trkpt>
      <trkpt lat="56.862239882257" lon="14.806967241873">
        <ele>169</ele>
        <time>2019-12-12T06:00:55Z</time>
      </trkpt>
      <trkpt lat="56.862358737599" lon="14.806691477363">
        <ele>168.4</ele>
        <time>2019-12-12T06:01:01Z</time>
      </trkpt>
      <trkpt lat="56.86246007477" lon="14.806404816383">
        <ele>168.4</ele>
        <time>2019-12-12T06:01:07Z</time>
      </trkpt>
      <trkpt lat="56.862591586781" lon="14.806116562842">
        <ele>168.4</ele>
        <time>2019-12-12T06:01:14Z</time>
      </trkpt>
      <trkpt lat="56.862724775172" lon="14.805886898782">
        <ele>168.4</ele>
        <time>2019-12-12T06:01:20Z</time>
      </trkpt>
      <trkpt lat="56.862881349064" lon="14.805637788714">
        <ele>168.6</ele>
        <time>2019-12-12T06:01:27Z</time>
      </trkpt>
      <trkpt lat="56.862997186922" lon="14.805383984782">
        <ele>168.6</ele>
        <time>2019-12-12T06:01:33Z</time>
      </trkpt>
      <trkpt lat="56.863146049466" lon="14.80512179895">
        <ele>168.6</ele>
        <time>2019-12-12T06:01:40Z</time>
      </trkpt>
      <trkpt lat="56.863266162093" lon="14.804871515416">
        <ele>168.6</ele>
        <time>2019-12-12T06:01:46Z</time>
      </trkpt>
      <trkpt lat="56.863401865054" lon="14.804590637947">
        <ele>169.2</ele>
        <time>2019-12-12T06:01:53Z</time>
      </trkpt>
      <trkpt lat="56.863557097842" lon="14.8043548551">
        <ele>169.8</ele>
        <time>2019-12-12T06:02:00Z</time>
      </trkpt>
      <trkpt lat="56.863688190758" lon="14.804099961521">
        <ele>169.6</ele>
        <time>2019-12-12T06:02:06Z</time>
      </trkpt>
      <trkpt lat="56.863836801845" lon="14.803874153135">
        <ele>169.4</ele>
        <time>2019-12-12T06:02:13Z</time>
      </trkpt>
      <trkpt lat="56.864022880025" lon="14.803732750482">
        <ele>169</ele>
        <time>2019-12-12T06:02:20Z</time>
      </trkpt>
      <trkpt lat="56.864203845246" lon="14.803681956168">
        <ele>168.6</ele>
        <time>2019-12-12T06:02:26Z</time>
      </trkpt>
      <trkpt lat="56.864404424113" lon="14.803650524043">
        <ele>168.6</ele>
        <time>2019-12-12T06:02:33Z</time>
      </trkpt>
      <trkpt lat="56.864586059886" lon="14.803610374742">
        <ele>168.8</ele>
        <time>2019-12-12T06:02:39Z</time>
      </trkpt>
      <trkpt lat="56.864788315133" lon="14.803552874908">
        <ele>169</ele>
        <time>2019-12-12T06:02:46Z</time>
      </trkpt>
      <trkpt lat="56.86497883572" lon="14.803534686185">
        <ele>169.2</ele>
        <time>2019-12-12T06:02:52Z</time>
      </trkpt>
      <trkpt lat="56.865185365736" lon="14.803602579575">
        <ele>169</ele>
        <time>2019-12-12T06:02:58Z</time>
      </trkpt>
      <trkpt lat="56.86536105036" lon="14.80367675939">
        <ele>168.8</ele>
        <time>2019-12-12T06:03:05Z</time>
      </trkpt>
      <trkpt lat="56.86552952655" lon="14.803804918641">
        <ele>168.6</ele>
        <time>2019-12-12T06:03:12Z</time>
      </trkpt>
      <trkpt lat="56.865703367156" lon="14.803959648515">
        <ele>169</ele>
        <time>2019-12-12T06:03:19Z</time>
      </trkpt>
      <trkpt lat="56.865886763128" lon="14.804067607387">
        <ele>169.4</ele>
        <time>2019-12-12T06:03:25Z</time>
      </trkpt>
      <trkpt lat="56.866067560711" lon="14.80411429457">
        <ele>169.4</ele>
        <time>2019-12-12T06:03:31Z</time>
      </trkpt>
      <trkpt lat="56.866247939199" lon="14.804203310348">
        <ele>169.4</ele>
        <time>2019-12-12T06:03:37Z</time>
      </trkpt>
      <trkpt lat="56.866437621596" lon="14.804314454342">
        <ele>169</ele>
        <time>2019-12-12T06:03:43Z</time>
      </trkpt>
      <trkpt lat="56.866632668409" lon="14.80446214342">
        <ele>169</ele>
        <time>2019-12-12T06:03:50Z</time>
      </trkpt>
      <trkpt lat="56.866822518444" lon="14.804516374313">
        <ele>169.4</ele>
        <time>2019-12-12T06:03:56Z</time>
      </trkpt>
      <trkpt lat="56.867020834198" lon="14.804572281586">
        <ele>169.2</ele>
        <time>2019-12-12T06:04:02Z</time>
      </trkpt>
      <trkpt lat="56.867202134695" lon="14.804634894379">
        <ele>169.4</ele>
        <time>2019-12-12T06:04:08Z</time>
      </trkpt>
      <trkpt lat="56.867397432965" lon="14.804715528257">
        <ele>169</ele>
        <time>2019-12-12T06:04:15Z</time>
      </trkpt>
      <trkpt lat="56.867569094277" lon="14.804822146025">
        <ele>169.4</ele>
        <time>2019-12-12T06:04:22Z</time>
      </trkpt>
      <trkpt lat="56.867765901289" lon="14.804980480116">
        <ele>169.2</ele>
        <time>2019-12-12T06:04:29Z</time>
      </trkpt>
      <trkpt lat="56.867928258692" lon="14.8051427537">
        <ele>169.6</ele>
        <time>2019-12-12T06:04:35Z</time>
      </trkpt>
      <trkpt lat="56.868121461487" lon="14.805241827758">
        <ele>169</ele>
        <time>2019-12-12T06:04:41Z</time>
      </trkpt>
      <trkpt lat="56.868307958762" lon="14.805277199376">
        <ele>168.8</ele>
        <time>2019-12-12T06:04:47Z</time>
      </trkpt>
      <trkpt lat="56.868508369991" lon="14.805270661494">
        <ele>169.4</ele>
        <time>2019-12-12T06:04:53Z</time>
      </trkpt>
      <trkpt lat="56.868711882523" lon="14.80525674754">
        <ele>169.2</ele>
        <time>2019-12-12T06:05:00Z</time>
      </trkpt>
      <trkpt lat="56.868891255183" lon="14.805206623778">
        <ele>168.8</ele>
        <time>2019-12-12T06:05:05Z</time>
      </trkpt>
      <trkpt lat="56.869104323081" lon="14.805028089308">
        <ele>168.8</ele>
        <time>2019-12-12T06:05:14Z</time>
      </trkpt>
      <trkpt lat="56.86930305793" lon="14.804923231739">
        <ele>169</ele>
        <time>2019-12-12T06:05:20Z</time>
      </trkpt>
      <trkpt lat="56.869421829453" lon="14.804649227428">
        <ele>169</ele>
        <time>2019-12-12T06:05:26Z</time>
      </trkpt>
      <trkpt lat="56.869465750609" lon="14.804279082724">
        <ele>168.8</ele>
        <time>2019-12-12T06:05:33Z</time>
      </trkpt>
      <trkpt lat="56.869511851059" lon="14.803939196679">
        <ele>169</ele>
        <time>2019-12-12T06:05:40Z</time>
      </trkpt>
      <trkpt lat="56.869485615712" lon="14.803608949819">
        <ele>169</ele>
        <time>2019-12-12T06:05:46Z</time>
      </trkpt>
      <trkpt lat="56.869393247174" lon="14.803305105944">
        <ele>169.2</ele>
        <time>2019-12-12T06:05:52Z</time>
      </trkpt>
      <trkpt lat="56.869295346582" lon="14.803016098032">
        <ele>169.4</ele>
        <time>2019-12-12T06:05:58Z</time>
      </trkpt>
      <trkpt lat="56.869131145161" lon="14.802786350153">
        <ele>169.2</ele>
        <time>2019-12-12T06:06:05Z</time>
      </trkpt>
      <trkpt lat="56.869029221257" lon="14.802504466856">
        <ele>170</ele>
        <time>2019-12-12T06:06:11Z</time>
      </trkpt>
      <trkpt lat="56.868915897969" lon="14.802229540536">
        <ele>169.8</ele>
        <time>2019-12-12T06:06:17Z</time>
      </trkpt>
      <trkpt lat="56.868800311568" lon="14.801926786308">
        <ele>170</ele>
        <time>2019-12-12T06:06:24Z</time>
      </trkpt>
      <trkpt lat="56.868678774018" lon="14.801627468659">
        <ele>169.8</ele>
        <time>2019-12-12T06:06:31Z</time>
      </trkpt>
      <trkpt lat="56.868553548432" lon="14.801326642268">
        <ele>169.8</ele>
        <time>2019-12-12T06:06:38Z</time>
      </trkpt>
      <trkpt lat="56.868449193777" lon="14.801022966031">
        <ele>169.8</ele>
        <time>2019-12-12T06:06:45Z</time>
      </trkpt>
      <trkpt lat="56.868363698397" lon="14.800731862644">
        <ele>169.6</ele>
        <time>2019-12-12T06:06:51Z</time>
      </trkpt>
      <trkpt lat="56.868255152792" lon="14.800413937177">
        <ele>169.8</ele>
        <time>2019-12-12T06:06:58Z</time>
      </trkpt>
      <trkpt lat="56.8681656341" lon="14.800066842698">
        <ele>170</ele>
        <time>2019-12-12T06:07:05Z</time>
      </trkpt>
      <trkpt lat="56.868083994394" lon="14.799758304959">
        <ele>170.2</ele>
        <time>2019-12-12T06:07:11Z</time>
      </trkpt>
      <trkpt lat="56.868026997474" lon="14.799417748362">
        <ele>170.4</ele>
        <time>2019-12-12T06:07:18Z</time>
      </trkpt>
      <trkpt lat="56.868026075465" lon="14.799084484018">
        <ele>170.4</ele>
        <time>2019-12-12T06:07:24Z</time>
      </trkpt>
      <trkpt lat="56.868086760421" lon="14.798731857485">
        <ele>170.6</ele>
        <time>2019-12-12T06:07:31Z</time>
      </trkpt>
      <trkpt lat="56.86813713564" lon="14.79838778049">
        <ele>170.4</ele>
        <time>2019-12-12T06:07:38Z</time>
      </trkpt>
      <trkpt lat="56.868176949665" lon="14.798020904727">
        <ele>170.4</ele>
        <time>2019-12-12T06:07:45Z</time>
      </trkpt>
      <trkpt lat="56.868222044287" lon="14.797648748367">
        <ele>170.8</ele>
        <time>2019-12-12T06:07:52Z</time>
      </trkpt>
      <trkpt lat="56.868278286836" lon="14.797336522592">
        <ele>170.8</ele>
        <time>2019-12-12T06:07:58Z</time>
      </trkpt>
      <trkpt lat="56.868350706452" lon="14.796987835552">
        <ele>171</ele>
        <time>2019-12-12T06:08:05Z</time>
      </trkpt>
      <trkpt lat="56.868395717255" lon="14.79679354311">
        <ele>171</ele>
        <time>2019-12-12T06:08:09Z</time>
      </trkpt>
      <trkpt lat="56.86847408802" lon="14.796448963201">
        <ele>170.8</ele>
        <time>2019-12-12T06:08:16Z</time>
      </trkpt>
      <trkpt lat="56.868526558714" lon="14.796129780449">
        <ele>170.8</ele>
        <time>2019-12-12T06:08:22Z</time>
      </trkpt>
      <trkpt lat="56.868597721045" lon="14.795790900232">
        <ele>170.8</ele>
        <time>2019-12-12T06:08:29Z</time>
      </trkpt>
      <trkpt lat="56.868670308299" lon="14.795447912884">
        <ele>170.8</ele>
        <time>2019-12-12T06:08:36Z</time>
      </trkpt>
      <trkpt lat="56.868730657979" lon="14.795129987417">
        <ele>170.8</ele>
        <time>2019-12-12T06:08:42Z</time>
      </trkpt>
      <trkpt lat="56.868796707351" lon="14.794822204049">
        <ele>168.6</ele>
        <time>2019-12-12T06:08:48Z</time>
      </trkpt>
      <trkpt lat="56.868884214387" lon="14.794479887253">
        <ele>169.2</ele>
        <time>2019-12-12T06:08:55Z</time>
      </trkpt>
      <trkpt lat="56.868964764446" lon="14.794182916536">
        <ele>169.6</ele>
        <time>2019-12-12T06:09:01Z</time>
      </trkpt>
      <trkpt lat="56.869023521565" lon="14.793884856172">
        <ele>169.6</ele>
        <time>2019-12-12T06:09:07Z</time>
      </trkpt>
      <trkpt lat="56.869064089961" lon="14.793564583773">
        <ele>169.6</ele>
        <time>2019-12-12T06:09:14Z</time>
      </trkpt>
      <trkpt lat="56.86906920292" lon="14.793221764063">
        <ele>169.8</ele>
        <time>2019-12-12T06:09:21Z</time>
      </trkpt>
      <trkpt lat="56.86891832872" lon="14.793046498534">
        <ele>170</ele>
        <time>2019-12-12T06:09:27Z</time>
      </trkpt>
      <trkpt lat="56.868878514695" lon="14.792699152598">
        <ele>169.2</ele>
        <time>2019-12-12T06:09:34Z</time>
      </trkpt>
      <trkpt lat="56.868971050871" lon="14.792355997612">
        <ele>169.2</ele>
        <time>2019-12-12T06:09:41Z</time>
      </trkpt>
      <trkpt lat="56.869053864043" lon="14.792008903133">
        <ele>169.2</ele>
        <time>2019-12-12T06:09:48Z</time>
      </trkpt>
      <trkpt lat="56.86912368527" lon="14.791691983494">
        <ele>169.2</ele>
        <time>2019-12-12T06:09:54Z</time>
      </trkpt>
      <trkpt lat="56.869190153737" lon="14.791376907873">
        <ele>169.2</ele>
        <time>2019-12-12T06:10:00Z</time>
      </trkpt>
      <trkpt lat="56.869262489534" lon="14.791069375962">
        <ele>169.4</ele>
        <time>2019-12-12T06:10:06Z</time>
      </trkpt>
      <trkpt lat="56.869347062905" lon="14.790751282857">
        <ele>169.4</ele>
        <time>2019-12-12T06:10:13Z</time>
      </trkpt>
      <trkpt lat="56.86942962462" lon="14.790408798423">
        <ele>169.2</ele>
        <time>2019-12-12T06:10:20Z</time>
      </trkpt>
      <trkpt lat="56.869501792779" lon="14.79006790655">
        <ele>168.6</ele>
        <time>2019-12-12T06:10:27Z</time>
      </trkpt>
      <trkpt lat="56.86955200036" lon="14.789841092336">
        <ele>168.6</ele>
        <time>2019-12-12T06:10:32Z</time>
      </trkpt>
      <trkpt lat="56.869634562075" lon="14.789502212119">
        <ele>168.2</ele>
        <time>2019-12-12T06:10:39Z</time>
      </trkpt>
      <trkpt lat="56.869711843193" lon="14.789166265567">
        <ele>168.2</ele>
        <time>2019-12-12T06:10:46Z</time>
      </trkpt>
      <trkpt lat="56.869841930281" lon="14.788916736404">
        <ele>168.2</ele>
        <time>2019-12-12T06:10:53Z</time>
      </trkpt>
      <trkpt lat="56.870018034" lon="14.789066185681">
        <ele>168</ele>
        <time>2019-12-12T06:11:00Z</time>
      </trkpt>
      <trkpt lat="56.870187683656" lon="14.789198452063">
        <ele>168.4</ele>
        <time>2019-12-12T06:11:06Z</time>
      </trkpt>
      <trkpt lat="56.870361524262" lon="14.789323258554">
        <ele>169.4</ele>
        <time>2019-12-12T06:11:12Z</time>
      </trkpt>
      <trkpt lat="56.870474344636" lon="14.789418644576">
        <ele>169.6</ele>
        <time>2019-12-12T06:11:16Z</time>
      </trkpt>
      <trkpt lat="56.870582638784" lon="14.789516209892">
        <ele>170.8</ele>
        <time>2019-12-12T06:11:20Z</time>
      </trkpt>
      <trkpt lat="56.870657656789" lon="14.789580247608">
        <ele>172</ele>
        <time>2019-12-12T06:11:23Z</time>
      </trkpt>
      <trkpt lat="56.870826635893" lon="14.789759704087">
        <ele>173</ele>
        <time>2019-12-12T06:11:30Z</time>
      </trkpt>
      <trkpt lat="56.870999303033" lon="14.789962462248">
        <ele>174</ele>
        <time>2019-12-12T06:11:37Z</time>
      </trkpt>
      <trkpt lat="56.87101883286" lon="14.7899966604">
        <ele>174.2</ele>
        <time>2019-12-12T06:11:38Z</time>
      </trkpt>
      <trkpt lat="56.8711831181" lon="14.790211991411">
        <ele>174.6</ele>
        <time>2019-12-12T06:11:45Z</time>
      </trkpt>
      <trkpt lat="56.871243803056" lon="14.790291787099">
        <ele>175.2</ele>
        <time>2019-12-12T06:11:48Z</time>
      </trkpt>
      <trkpt lat="56.871402975337" lon="14.790487420645">
        <ele>176.2</ele>
        <time>2019-12-12T06:11:55Z</time>
      </trkpt>
      <trkpt lat="56.871549658587" lon="14.790742146586">
        <ele>176.2</ele>
        <time>2019-12-12T06:12:02Z</time>
      </trkpt>
      <trkpt lat="56.871684188082" lon="14.791019671295">
        <ele>176</ele>
        <time>2019-12-12T06:12:09Z</time>
      </trkpt>
      <trkpt lat="56.871817125016" lon="14.79124723988">
        <ele>175.6</ele>
        <time>2019-12-12T06:12:15Z</time>
      </trkpt>
      <trkpt lat="56.871882336198" lon="14.791358802969">
        <ele>175</ele>
        <time>2019-12-12T06:12:18Z</time>
      </trkpt>
      <trkpt lat="56.87202717543" lon="14.791594585816">
        <ele>174.4</ele>
        <time>2019-12-12T06:12:25Z</time>
      </trkpt>
      <trkpt lat="56.872106216747" lon="14.791675806427">
        <ele>174</ele>
        <time>2019-12-12T06:12:28Z</time>
      </trkpt>
      <trkpt lat="56.872265640485" lon="14.791849227938">
        <ele>173.6</ele>
        <time>2019-12-12T06:12:34Z</time>
      </trkpt>
      <trkpt lat="56.872451551027" lon="14.79199406717">
        <ele>174.6</ele>
        <time>2019-12-12T06:12:41Z</time>
      </trkpt>
      <trkpt lat="56.872632264791" lon="14.792146953026">
        <ele>175</ele>
        <time>2019-12-12T06:12:48Z</time>
      </trkpt>
      <trkpt lat="56.87276059168" lon="14.792382735873">
        <ele>175.8</ele>
        <time>2019-12-12T06:12:55Z</time>
      </trkpt>
      <trkpt lat="56.872807278863" lon="14.79245171891">
        <ele>176.2</ele>
        <time>2019-12-12T06:12:57Z</time>
      </trkpt>
      <trkpt lat="56.872985645695" lon="14.792632516493">
        <ele>176.8</ele>
        <time>2019-12-12T06:13:04Z</time>
      </trkpt>
      <trkpt lat="56.87318387763" lon="14.792719772072">
        <ele>176.6</ele>
        <time>2019-12-12T06:13:11Z</time>
      </trkpt>
      <trkpt lat="56.873251938658" lon="14.792725555583">
        <ele>176.6</ele>
        <time>2019-12-12T06:13:14Z</time>
      </trkpt>
    </trkseg>
  </trk>
</gpx>